Aeroporto :
LOGIN :

Iscrizione | Disclaimer

   EN    FR    IT 

 










Sommario :    VFR   VFR Marginale   IFR   IFR Intensivo   IFR Molto Intensivo
Visibilità : 
Base nubi : 
>= 8 km
>= 3000ft
5 / 8 km
1000 / 3000 ft
1500m / 5 km
500 / 1000 ft
800 / 1500m
200 / 500 ft
< 800m
< 200 ft
Simboli :   Temporali  Nebbia  Neve Forte  Precipitazioni Forti  Vento > 20 kt
SIGMETs :   Varie  Temporali  Ghiacco  Turbolenza  Onda orograficha  Ceneri Vulcaniche







- Altitudine del aeroporto : 39 ft


ETNH - Hohn AB

ULTIMO METAR :
  • 181420Z 23005KT 9999 FEW040 SCT160 BKN240 24/11 Q1010 BLU+BLU+

METARs OBSOLETI :
  • 181320Z 19005KT 9999 FEW040 BKN300 24/12 Q1011 BLU+BLU+
  • 181220Z 18004KT 9999 FEW040 SCT300 23/11 Q1011 BLU+BLU+

TAF TAF ETNH
Valido dal 18 a 11 ore il 18 a 23 ore UTC


181019Z 1811/1823 18006KT 9999 NSW FEW030 BKN250
BECMG 1816/1818 21007KT 9000 NSW SCT030 BKN120
TEMPO 1820/1823 23010KT 6000 RA FEW015 BKN040
PROB30 1821/1823 24015KT 4000 SHRA SCT015 BKN040CB BY ETGL
Nessun NOTAM noto per questo aeroporto.



MetMap, La meteo Aeronautica in un colpo d'occhio ! - Copyright ORBIFLY Dicembre 2007 - Disclaimer

ORBIFLY MET'MAP TEAM :

Programmazione e sviluppo : Alexandra Zaïnal
Concezione e sviluppo : Baudouin d'Aumeries
Co-Programmazione e sviluppo : Marc-Olivier Méhu
Supporto tecnico e logistico : Manuel Goepfert
Aiuto per la traduzione : Arnaldo La Scala

Contatto : metmap@orbifly.com




FONTI E CREDITI :

   NOAA